Time;durP1;ratioP1;P1;durP2;ratioP2;P2;SDS_P1;SDS_P2;PMS_P1;PMS_P2;Temp;Humidity;BMP_temperature;BMP_pressure;BME280_temperature;BME280_humidity;BME280_pressure;Samples;Min_cycle;Max_cycle;Signal;HPM_P1;HPM_P2
2022/11/06 00:01:42;;;;;;;127.03;38.47;;;4.40;99.90;;;;;;5075973;28;20291;-77
2022/11/06 00:04:08;;;;;;;120.00;35.87;;;4.40;99.90;;;;;;5076119;28;20289;-76
2022/11/06 00:06:49;;;;;;;139.00;37.90;;;4.40;99.90;;;;;;5076074;28;20199;-77
2022/11/06 00:09:19;;;;;;;152.03;37.97;;;4.40;99.90;;;;;;5076165;28;20260;-78
2022/11/06 00:11:46;;;;;;;344.80;47.90;;;4.40;99.90;;;;;;5076000;28;20208;-77
2022/11/06 00:14:13;;;;;;;269.03;42.77;;;4.30;99.90;;;;;;5076166;28;20200;-77
2022/11/06 00:16:41;;;;;;;467.70;52.30;;;4.20;99.90;;;;;;5076195;28;20208;-77
2022/11/06 00:19:08;;;;;;;187.13;37.40;;;4.20;99.90;;;;;;5075983;28;20200;-77
2022/11/06 00:21:35;;;;;;;255.47;39.73;;;4.20;99.90;;;;;;5076156;28;20253;-77
2022/11/06 00:24:05;;;;;;;129.20;31.60;;;4.20;99.90;;;;;;5076343;28;20203;-78
2022/11/06 00:26:34;;;;;;;199.83;36.03;;;4.20;99.90;;;;;;5075942;28;20203;-77
2022/11/06 00:29:01;;;;;;;242.67;36.23;;;4.20;99.90;;;;;;5076135;28;20641;-78
2022/11/06 00:31:30;;;;;;;334.83;37.87;;;4.10;99.90;;;;;;5076232;28;20590;-77
2022/11/06 00:33:59;;;;;;;248.47;36.77;;;4.00;99.90;;;;;;5078550;28;20196;-77
2022/11/06 00:36:29;;;;;;;125.73;33.00;;;4.00;99.90;;;;;;5077547;28;20194;-77
2022/11/06 00:38:56;;;;;;;289.93;36.90;;;4.00;99.90;;;;;;5076574;28;20575;-77
2022/11/06 00:41:24;;;;;;;208.10;34.50;;;4.00;99.90;;;;;;5075750;28;20201;-77
2022/11/06 00:43:54;;;;;;;323.40;37.63;;;3.90;99.90;;;;;;5076868;28;20207;-77
2022/11/06 00:46:21;;;;;;;181.57;33.67;;;3.90;99.90;;;;;;5077801;28;20209;-77
2022/11/06 00:48:48;;;;;;;240.57;36.43;;;3.90;99.90;;;;;;5077851;28;20197;-77
2022/11/06 00:51:18;;;;;;;153.90;32.80;;;4.00;99.90;;;;;;5080417;28;20583;-77
2022/11/06 00:53:45;;;;;;;253.63;34.37;;;4.00;99.90;;;;;;5082625;28;20219;-77
2022/11/06 00:56:13;;;;;;;313.47;36.70;;;4.00;99.90;;;;;;5080023;28;20196;-78
2022/11/06 00:58:40;;;;;;;288.27;36.33;;;4.00;99.90;;;;;;5080806;28;20203;-77
2022/11/06 01:01:10;;;;;;;186.13;31.80;;;4.00;99.90;;;;;;5081396;28;20266;-77
2022/11/06 01:03:38;;;;;;;244.17;33.93;;;3.90;99.90;;;;;;5078878;28;20199;-77
2022/11/06 01:06:07;;;;;;;159.27;31.03;;;3.90;99.90;;;;;;5081529;28;20199;-77
2022/11/06 01:08:34;;;;;;;148.50;30.23;;;3.90;99.90;;;;;;5081621;28;20221;-77
2022/11/06 01:11:06;;;;;;;110.57;28.57;;;4.00;99.90;;;;;;5078954;28;20259;-77
2022/11/06 01:13:33;;;;;;;241.57;34.07;;;3.90;99.90;;;;;;5076210;28;20210;-77
2022/11/06 01:16:00;;;;;;;188.60;34.90;;;3.90;99.90;;;;;;5080598;28;20198;-78
2022/11/06 01:18:28;;;;;;;145.53;31.67;;;3.80;99.90;;;;;;5082751;28;20198;-77
2022/11/06 01:20:55;;;;;;;200.73;34.13;;;3.90;99.90;;;;;;5079842;28;20201;-77
2022/11/06 01:23:22;;;;;;;113.80;32.00;;;3.80;99.90;;;;;;5081522;28;20719;-76
2022/11/06 01:25:56;;;;;;;180.40;35.17;;;3.90;99.90;;;;;;5081182;28;20653;-77
2022/11/06 01:28:23;;;;;;;113.23;34.07;;;3.90;99.90;;;;;;5083293;28;20220;-77
2022/11/06 01:30:50;;;;;;;81.37;29.47;;;3.80;99.90;;;;;;5081520;28;20688;-77
2022/11/06 01:33:16;;;;;;;160.73;35.17;;;3.80;99.90;;;;;;5082005;28;20200;-77
2022/11/06 01:35:46;;;;;;;119.83;32.07;;;3.70;99.90;;;;;;5081222;28;20197;-77
2022/11/06 01:38:13;;;;;;;113.47;33.17;;;3.80;99.90;;;;;;5081781;28;20221;-77
2022/11/06 01:40:40;;;;;;;75.20;29.83;;;3.80;99.90;;;;;;5081163;28;20591;-77
2022/11/06 01:43:13;;;;;;;113.93;31.90;;;3.80;99.90;;;;;;5077152;28;20197;-77
2022/11/06 01:45:41;;;;;;;139.87;34.60;;;3.80;99.90;;;;;;5080842;28;20197;-76
2022/11/06 01:48:07;;;;;;;115.63;32.27;;;3.80;99.90;;;;;;5080791;28;20726;-77
2022/11/06 01:50:34;;;;;;;114.47;33.07;;;3.80;99.90;;;;;;5077262;28;20233;-77
2022/11/06 01:53:03;;;;;;;122.73;31.03;;;3.80;99.90;;;;;;5077699;28;20255;-77
2022/11/06 01:55:34;;;;;;;100.73;30.63;;;3.70;99.90;;;;;;5081560;28;20652;-77
2022/11/06 01:58:03;;;;;;;158.47;33.40;;;3.70;99.90;;;;;;5082484;28;20193;-77
2022/11/06 02:00:31;;;;;;;100.67;31.60;;;3.60;99.90;;;;;;5081892;28;20197;-77
2022/11/06 02:02:59;;;;;;;75.17;29.03;;;3.50;99.90;;;;;;5082973;28;20204;-76
2022/11/06 02:05:27;;;;;;;89.03;31.47;;;3.40;99.90;;;;;;5082876;28;20229;-77
2022/11/06 02:07:55;;;;;;;74.67;29.73;;;3.50;99.90;;;;;;5082105;28;20202;-77
2022/11/06 02:10:24;;;;;;;107.97;32.20;;;3.50;99.90;;;;;;5081350;28;20697;-77
2022/11/06 02:13:05;;;;;;;61.03;27.03;;;3.50;99.90;;;;;;5081733;28;20533;-77
2022/11/06 02:15:40;;;;;;;85.17;30.33;;;3.40;99.90;;;;;;5079359;28;20196;-77
2022/11/06 02:18:31;;;;;;;68.13;27.77;;;3.40;99.90;;;;;;5081115;28;20232;-77
2022/11/06 02:21:28;;;;;;;92.10;30.43;;;3.40;99.90;;;;;;5083112;28;20211;-77
2022/11/06 02:24:13;;;;;;;98.67;31.13;;;3.40;99.90;;;;;;5084340;28;20193;-77
2022/11/06 02:27:02;;;;;;;111.93;31.93;;;3.40;99.90;;;;;;5084746;28;20280;-77
2022/11/06 02:29:33;;;;;;;103.27;31.07;;;3.30;99.90;;;;;;5085871;28;20277;-77
2022/11/06 02:32:06;;;;;;;78.30;29.97;;;3.30;99.90;;;;;;5085053;28;20197;-77
2022/11/06 02:34:35;;;;;;;161.00;34.20;;;3.40;99.90;;;;;;5083351;28;20208;-77
2022/11/06 02:37:06;;;;;;;327.27;40.87;;;3.40;99.90;;;;;;5082984;28;20198;-77
2022/11/06 02:39:36;;;;;;;201.20;36.13;;;3.40;99.90;;;;;;5083324;28;20197;-77
2022/11/06 02:42:07;;;;;;;82.43;28.53;;;3.40;99.90;;;;;;5083491;28;20200;-76
2022/11/06 02:44:37;;;;;;;80.60;28.47;;;3.30;99.90;;;;;;5085697;28;20265;-77
2022/11/06 02:47:08;;;;;;;85.63;29.83;;;3.40;99.90;;;;;;5086662;28;20197;-76
2022/11/06 02:49:40;;;;;;;89.93;31.10;;;3.40;99.90;;;;;;5088393;28;20203;-76
2022/11/06 02:52:11;;;;;;;136.73;33.47;;;3.40;99.90;;;;;;5085795;28;20624;-76
2022/11/06 02:54:44;;;;;;;207.80;36.17;;;3.40;99.90;;;;;;5086396;28;20197;-76
2022/11/06 02:57:14;;;;;;;183.43;34.93;;;3.40;99.90;;;;;;5087365;28;20200;-76
2022/11/06 02:59:48;;;;;;;372.33;43.43;;;3.40;99.90;;;;;;5087642;28;20219;-77
2022/11/06 03:02:20;;;;;;;360.70;40.93;;;3.40;99.90;;;;;;5087444;28;20197;-76
2022/11/06 03:04:52;;;;;;;379.03;38.77;;;3.40;99.90;;;;;;5085874;28;20228;-77
2022/11/06 03:07:25;;;;;;;251.60;34.03;;;3.40;99.90;;;;;;5084541;28;20201;-77
2022/11/06 03:09:51;;;;;;;206.90;31.47;;;3.40;99.90;;;;;;5084660;28;20289;-77
2022/11/06 03:12:25;;;;;;;272.17;36.57;;;3.30;99.90;;;;;;5081469;28;20205;-77
2022/11/06 03:14:57;;;;;;;271.07;34.53;;;3.30;99.90;;;;;;5080276;28;20269;-77
2022/11/06 03:17:34;;;;;;;214.43;34.73;;;3.30;99.90;;;;;;5080640;28;20277;-77
2022/11/06 03:20:10;;;;;;;91.77;27.60;;;3.20;99.90;;;;;;5080505;28;20205;-77
2022/11/06 03:22:42;;;;;;;108.83;27.63;;;3.10;99.90;;;;;;5082066;28;20227;-77
2022/11/06 03:25:15;;;;;;;96.47;30.43;;;3.00;99.90;;;;;;5074714;28;20421;-76
2022/11/06 03:27:52;;;;;;;78.03;29.03;;;3.00;99.90;;;;;;5073077;28;20193;-77
2022/11/06 03:30:19;;;;;;;79.80;28.17;;;2.90;99.90;;;;;;5073432;28;20603;-77
2022/11/06 03:32:49;;;;;;;75.80;29.03;;;2.80;99.90;;;;;;5073418;28;20266;-76
2022/11/06 03:35:23;;;;;;;130.00;33.47;;;2.80;99.90;;;;;;5073588;28;20201;-76
2022/11/06 03:37:56;;;;;;;79.97;28.73;;;2.70;99.90;;;;;;5073355;28;20197;-77
2022/11/06 03:40:26;;;;;;;61.57;26.63;;;2.70;99.90;;;;;;5073343;28;20208;-77
2022/11/06 03:42:57;;;;;;;75.20;27.70;;;2.50;99.90;;;;;;5073508;28;20246;-76
2022/11/06 03:45:26;;;;;;;67.73;25.77;;;2.50;99.90;;;;;;5073315;28;20204;-77
2022/11/06 03:47:57;;;;;;;57.43;24.63;;;2.40;99.90;;;;;;5074070;28;20251;-76
2022/11/06 03:50:29;;;;;;;61.33;25.23;;;2.30;99.90;;;;;;5074103;28;20221;-77
2022/11/06 03:53:00;;;;;;;50.53;23.97;;;2.20;99.90;;;;;;5074385;28;20247;-77
2022/11/06 03:55:31;;;;;;;47.93;23.57;;;2.10;99.90;;;;;;5075559;28;20197;-77
2022/11/06 03:58:04;;;;;;;42.47;21.03;;;2.00;99.90;;;;;;5077029;28;20205;-77
2022/11/06 04:00:33;;;;;;;43.93;22.80;;;1.90;99.90;;;;;;5078036;28;20205;-77
2022/11/06 04:03:05;;;;;;;53.83;24.27;;;1.90;99.90;;;;;;5078510;28;20197;-77
2022/11/06 04:05:35;;;;;;;70.27;23.77;;;1.80;99.90;;;;;;5078786;28;20581;-77
2022/11/06 04:13:59;;;;;;;55.53;22.77;;;1.60;99.90;;;;;;5086873;28;20200;-76
2022/11/06 04:16:30;;;;;;;41.23;21.93;;;1.50;99.90;;;;;;5091640;28;20232;-77
2022/11/06 04:18:57;;;;;;;47.47;22.03;;;1.50;99.90;;;;;;5091148;28;20211;-77
2022/11/06 04:21:32;;;;;;;37.30;20.30;;;1.50;99.90;;;;;;5088773;28;20227;-77
2022/11/06 04:27:13;;;;;;;38.80;19.90;;;1.20;99.90;;;;;;5087201;28;20200;-76
2022/11/06 04:29:54;;;;;;;44.87;20.47;;;1.20;99.90;;;;;;5086789;28;20258;-77
2022/11/06 04:32:28;;;;;;;43.43;20.97;;;1.10;99.90;;;;;;5088053;28;20204;-76
2022/11/06 04:35:03;;;;;;;41.80;21.43;;;1.00;99.90;;;;;;5086087;28;20201;-77
2022/11/06 04:37:36;;;;;;;43.73;21.83;;;1.10;99.90;;;;;;5089186;28;20196;-77
2022/11/06 04:40:09;;;;;;;38.17;20.47;;;1.10;99.90;;;;;;5095472;28;20201;-77
2022/11/06 04:42:41;;;;;;;33.17;18.83;;;1.10;99.90;;;;;;5094465;28;20200;-77
2022/11/06 04:45:15;;;;;;;38.00;20.00;;;1.10;99.90;;;;;;5092790;28;20219;-76
2022/11/06 04:47:43;;;;;;;34.87;19.90;;;1.00;99.90;;;;;;5093729;28;20227;-76
2022/11/06 04:50:12;;;;;;;38.93;19.40;;;0.80;99.90;;;;;;5093000;28;20205;-76
2022/11/06 04:52:40;;;;;;;39.10;20.13;;;0.80;99.90;;;;;;5093521;28;20201;-76
2022/11/06 04:55:07;;;;;;;39.70;20.03;;;0.90;99.90;;;;;;5092039;28;20204;-76
2022/11/06 04:57:34;;;;;;;41.93;21.10;;;0.90;99.90;;;;;;5092803;28;20602;-76
2022/11/06 05:00:00;;;;;;;44.30;22.27;;;1.00;99.90;;;;;;5091888;28;20205;-75
2022/11/06 05:02:28;;;;;;;42.67;20.63;;;1.00;99.90;;;;;;5090027;28;20208;-76
2022/11/06 05:04:55;;;;;;;38.30;20.30;;;0.90;99.90;;;;;;5087486;28;20228;-76
2022/11/06 05:07:22;;;;;;;36.67;20.53;;;0.80;99.90;;;;;;5088244;28;20264;-76
2022/11/06 05:09:49;;;;;;;43.33;20.57;;;0.90;99.90;;;;;;5086628;28;20656;-75
2022/11/06 05:12:16;;;;;;;35.60;20.37;;;0.80;99.90;;;;;;5085803;28;20225;-76
2022/11/06 05:14:42;;;;;;;37.43;20.53;;;0.80;99.90;;;;;;5085979;28;20220;-76
2022/11/06 05:17:09;;;;;;;32.27;18.80;;;0.70;99.90;;;;;;5086193;28;20193;-76
2022/11/06 05:19:37;;;;;;;39.40;21.10;;;0.70;99.90;;;;;;5086024;28;20197;-76
2022/11/06 05:24:48;;;;;;;34.77;19.53;;;0.60;99.90;;;;;;5084853;28;20215;-76
2022/11/06 05:27:15;;;;;;;40.37;20.47;;;0.70;99.90;;;;;;5084383;28;20254;-76
2022/11/06 05:29:41;;;;;;;40.80;20.43;;;0.70;99.90;;;;;;5084382;28;20205;-76
2022/11/06 05:32:08;;;;;;;42.33;21.00;;;0.70;99.90;;;;;;5084552;28;20282;-76
2022/11/06 05:34:35;;;;;;;44.40;20.97;;;0.70;99.90;;;;;;5083889;28;20201;-76
2022/11/06 05:37:03;;;;;;;34.70;18.10;;;0.70;99.90;;;;;;5084575;28;20684;-76
2022/11/06 05:39:29;;;;;;;40.77;19.77;;;0.70;99.90;;;;;;5083414;28;20201;-76
2022/11/06 05:41:56;;;;;;;35.00;18.90;;;0.70;99.90;;;;;;5082480;28;20613;-76
2022/11/06 05:44:23;;;;;;;40.23;19.63;;;0.70;99.90;;;;;;5079460;28;20193;-76
2022/11/06 05:46:49;;;;;;;43.60;19.40;;;0.70;99.90;;;;;;5078853;28;20223;-76
2022/11/06 05:49:17;;;;;;;43.33;21.67;;;0.60;99.90;;;;;;5078773;28;20200;-76
2022/11/06 05:51:43;;;;;;;41.70;21.37;;;0.60;99.90;;;;;;5078263;28;20212;-76
2022/11/06 05:54:12;;;;;;;44.97;22.03;;;0.60;99.90;;;;;;5079376;28;20200;-76
2022/11/06 05:56:39;;;;;;;40.20;20.30;;;0.60;99.90;;;;;;5080069;28;20196;-76
2022/11/06 05:59:05;;;;;;;44.87;21.10;;;0.60;99.90;;;;;;5079350;28;20193;-76
2022/11/06 06:01:32;;;;;;;51.37;24.37;;;0.70;99.90;;;;;;5079436;28;20197;-76
2022/11/06 06:03:59;;;;;;;72.10;25.70;;;0.70;99.90;;;;;;5079720;28;20232;-74
2022/11/06 06:06:26;;;;;;;84.60;25.37;;;0.80;99.90;;;;;;5079547;28;20238;-76
2022/11/06 06:08:52;;;;;;;134.60;28.63;;;0.90;99.90;;;;;;5078833;28;20652;-76
2022/11/06 06:11:20;;;;;;;52.57;23.50;;;0.90;99.90;;;;;;5079181;28;20250;-76
2022/11/06 06:13:47;;;;;;;97.50;26.00;;;1.00;99.90;;;;;;5079732;28;20246;-77
2022/11/06 06:16:14;;;;;;;82.80;26.80;;;1.00;99.90;;;;;;5078439;28;20577;-77
2022/11/06 06:18:41;;;;;;;104.20;26.50;;;1.10;99.90;;;;;;5079739;28;20205;-76
2022/11/06 06:21:07;;;;;;;67.13;26.30;;;1.10;99.90;;;;;;5083616;28;20200;-76
2022/11/06 06:23:34;;;;;;;78.53;26.20;;;1.20;99.90;;;;;;5081117;28;20197;-76
2022/11/06 06:26:01;;;;;;;60.60;26.90;;;1.30;99.90;;;;;;5080696;28;20330;-76
2022/11/06 06:28:29;;;;;;;193.67;33.10;;;1.30;99.90;;;;;;5081903;28;20238;-76
2022/11/06 06:30:55;;;;;;;80.47;26.83;;;1.30;99.90;;;;;;5080072;28;20224;-77
2022/11/06 06:33:22;;;;;;;67.23;25.87;;;1.30;99.90;;;;;;5080923;28;20251;-76
2022/11/06 06:35:49;;;;;;;91.73;27.90;;;1.30;99.90;;;;;;5079986;28;20223;-74
2022/11/06 06:38:15;;;;;;;73.87;27.43;;;1.40;99.90;;;;;;5080032;28;20220;-76
2022/11/06 06:40:42;;;;;;;99.90;28.47;;;1.50;99.90;;;;;;5079130;28;20193;-76
2022/11/06 06:43:08;;;;;;;65.87;25.37;;;1.50;99.90;;;;;;5079446;28;20254;-77
2022/11/06 06:45:36;;;;;;;93.73;29.53;;;1.50;99.90;;;;;;5079533;28;20197;-76
2022/11/06 06:48:04;;;;;;;66.43;27.10;;;1.60;99.90;;;;;;5079454;28;20709;-77
2022/11/06 06:50:31;;;;;;;88.63;28.70;;;1.60;99.90;;;;;;5078937;28;20231;-77
2022/11/06 06:52:57;;;;;;;73.73;27.10;;;1.70;99.90;;;;;;5077737;28;20254;-77
2022/11/06 06:55:25;;;;;;;76.70;29.53;;;1.70;99.90;;;;;;5080127;28;20219;-77
2022/11/06 06:57:56;;;;;;;118.93;30.73;;;1.80;99.90;;;;;;5080252;28;20212;-76
2022/11/06 07:00:23;;;;;;;134.17;31.23;;;1.90;99.90;;;;;;5079997;28;20197;-76
2022/11/06 07:02:51;;;;;;;118.17;29.27;;;2.00;99.90;;;;;;5080588;28;20196;-77
2022/11/06 07:05:18;;;;;;;110.67;29.43;;;2.00;99.90;;;;;;5080665;28;20287;-77
2022/11/06 07:07:45;;;;;;;104.23;28.43;;;2.00;99.90;;;;;;5080887;28;20658;-77
2022/11/06 07:10:12;;;;;;;149.07;31.37;;;2.00;99.90;;;;;;5081331;28;20201;-77
2022/11/06 07:12:38;;;;;;;164.63;31.13;;;2.00;99.90;;;;;;5080825;28;20691;-77
2022/11/06 07:15:06;;;;;;;165.17;32.17;;;2.00;99.90;;;;;;5080983;28;20227;-77
2022/11/06 07:17:33;;;;;;;97.73;29.43;;;2.10;99.90;;;;;;5085397;28;20197;-77
2022/11/06 07:20:01;;;;;;;77.67;28.90;;;2.00;99.90;;;;;;5084560;28;20201;-77
2022/11/06 07:22:28;;;;;;;70.00;30.27;;;2.10;99.90;;;;;;5082903;28;20197;-77
2022/11/06 07:24:54;;;;;;;63.73;29.50;;;2.10;99.90;;;;;;5084580;28;20247;-77
2022/11/06 07:27:21;;;;;;;68.10;30.40;;;2.20;99.90;;;;;;5083926;28;20201;-77
2022/11/06 07:29:48;;;;;;;67.20;32.07;;;2.40;99.90;;;;;;5083632;28;20262;-77
2022/11/06 07:32:14;;;;;;;58.47;30.67;;;2.40;99.90;;;;;;5083725;28;20250;-77
2022/11/06 07:34:41;;;;;;;60.77;31.80;;;2.50;99.90;;;;;;5083160;28;20560;-77
2022/11/06 07:37:09;;;;;;;70.80;32.50;;;2.60;99.90;;;;;;5083775;28;20220;-77
2022/11/06 07:39:36;;;;;;;60.40;31.73;;;2.70;99.90;;;;;;5081810;28;20250;-76
2022/11/06 07:42:02;;;;;;;61.80;30.10;;;2.80;99.90;;;;;;5075435;28;20205;-77
2022/11/06 07:44:29;;;;;;;56.70;29.63;;;2.90;99.90;;;;;;5075187;28;20279;-77
2022/11/06 07:46:56;;;;;;;60.80;30.17;;;3.00;99.90;;;;;;5075216;28;20197;-77
2022/11/06 07:49:22;;;;;;;61.80;30.03;;;3.10;99.90;;;;;;5076187;28;20201;-77
2022/11/06 07:51:49;;;;;;;55.90;28.37;;;3.20;99.90;;;;;;5078769;28;20627;-77
2022/11/06 07:54:17;;;;;;;50.57;27.93;;;3.40;99.90;;;;;;5080309;28;20648;-75
2022/11/06 07:56:43;;;;;;;54.23;29.97;;;3.50;99.90;;;;;;5087268;28;20560;-77
2022/11/06 07:59:10;;;;;;;53.27;28.00;;;3.60;99.90;;;;;;5078471;28;20645;-76
2022/11/06 08:01:37;;;;;;;47.53;26.20;;;3.80;99.90;;;;;;5078910;28;20267;-75
2022/11/06 08:04:03;;;;;;;50.20;25.87;;;3.80;99.90;;;;;;5075798;28;20647;-77
2022/11/06 08:06:30;;;;;;;44.30;26.27;;;3.90;99.90;;;;;;5075930;28;20724;-76
2022/11/06 08:08:57;;;;;;;46.97;26.97;;;4.00;99.90;;;;;;5076260;28;20205;-76
2022/11/06 08:11:25;;;;;;;47.13;26.07;;;4.10;99.90;;;;;;5076193;28;20233;-76
2022/11/06 08:13:51;;;;;;;47.97;26.90;;;4.20;99.90;;;;;;5076155;28;20336;-76
2022/11/06 08:16:18;;;;;;;48.43;28.47;;;4.40;99.90;;;;;;5075912;28;20202;-75
2022/11/06 08:18:44;;;;;;;44.43;27.43;;;4.60;99.90;;;;;;5075822;28;20203;-76
2022/11/06 08:21:11;;;;;;;42.53;25.80;;;4.60;99.90;;;;;;5075555;28;20207;-75
2022/11/06 08:23:38;;;;;;;48.73;26.80;;;4.80;99.90;;;;;;5075722;28;20251;-76
2022/11/06 08:26:06;;;;;;;51.47;27.13;;;5.00;99.90;;;;;;5075551;28;20203;-76
2022/11/06 08:28:34;;;;;;;46.80;27.60;;;5.10;99.90;;;;;;5075467;28;20719;-75
2022/11/06 08:31:04;;;;;;;55.97;30.37;;;5.30;99.90;;;;;;5073076;28;20204;-73
2022/11/06 08:33:31;;;;;;;46.23;26.37;;;5.70;99.90;;;;;;5072830;28;20591;-75
2022/11/06 08:36:01;;;;;;;51.07;29.63;;;5.90;99.90;;;;;;5072863;28;20224;-75
2022/11/06 08:38:27;;;;;;;42.73;27.77;;;6.10;99.90;;;;;;5072818;28;20247;-75
2022/11/06 08:40:54;;;;;;;41.93;26.90;;;6.30;99.90;;;;;;5072860;28;20231;-75
2022/11/06 08:43:23;;;;;;;40.83;26.40;;;6.50;99.90;;;;;;5072445;28;20205;-72
2022/11/06 08:45:51;;;;;;;37.03;25.10;;;6.60;99.90;;;;;;5072776;28;20212;-74
2022/11/06 08:48:17;;;;;;;30.80;22.03;;;6.90;99.90;;;;;;5072738;28;20258;-74
2022/11/06 08:50:44;;;;;;;28.60;20.30;;;7.20;99.90;;;;;;5072645;28;20258;-73
2022/11/06 08:53:11;;;;;;;27.80;19.97;;;7.30;99.90;;;;;;5072244;28;20229;-73
2022/11/06 08:55:39;;;;;;;24.77;17.60;;;7.50;99.90;;;;;;5072791;28;20204;-73
2022/11/06 08:58:06;;;;;;;21.10;16.33;;;7.80;99.90;;;;;;5072169;28;20227;-74
2022/11/06 09:00:33;;;;;;;18.40;14.27;;;8.10;99.90;;;;;;5072238;28;20196;-73
2022/11/06 09:03:04;;;;;;;15.13;13.03;;;8.40;99.90;;;;;;5072221;28;20254;-75
2022/11/06 09:05:31;;;;;;;14.87;12.10;;;8.50;99.90;;;;;;5073413;28;20233;-76
2022/11/06 09:07:58;;;;;;;12.70;11.40;;;8.80;99.90;;;;;;5074568;28;20255;-74
2022/11/06 09:10:26;;;;;;;12.90;10.70;;;8.90;99.90;;;;;;5074463;28;20192;-76
2022/11/06 09:12:52;;;;;;;12.70;11.37;;;9.00;99.90;;;;;;5074402;28;20229;-75
2022/11/06 09:15:19;;;;;;;13.23;10.63;;;8.90;99.90;;;;;;5074446;28;20227;-76
2022/11/06 09:17:47;;;;;;;12.67;10.90;;;8.90;99.90;;;;;;5076717;28;20189;-75
2022/11/06 09:20:17;;;;;;;12.90;10.97;;;9.10;99.90;;;;;;5088429;28;20197;-76
2022/11/06 09:22:44;;;;;;;12.47;10.97;;;9.20;99.90;;;;;;5078016;28;20220;-76
2022/11/06 09:25:11;;;;;;;11.80;10.60;;;9.30;99.90;;;;;;5089259;28;20246;-76
2022/11/06 09:27:44;;;;;;;11.63;10.53;;;9.50;99.90;;;;;;5079350;28;20251;-76
2022/11/06 09:30:13;;;;;;;13.67;12.37;;;9.80;99.90;;;;;;5081467;28;20567;-76
2022/11/06 09:32:44;;;;;;;12.10;10.90;;;9.50;99.90;;;;;;5080243;28;20266;-75
2022/11/06 09:35:11;;;;;;;13.67;11.20;;;9.30;99.90;;;;;;5083480;28;20570;-75
2022/11/06 09:37:39;;;;;;;12.13;10.90;;;9.50;99.90;;;;;;5084396;28;20671;-75
2022/11/06 09:40:07;;;;;;;12.00;10.50;;;9.50;99.90;;;;;;5081691;28;20214;-75
2022/11/06 09:42:47;;;;;;;12.37;11.07;;;9.30;99.90;;;;;;5083822;28;20242;-75
2022/11/06 09:45:21;;;;;;;13.00;11.70;;;8.90;99.90;;;;;;5081339;28;20563;-75
2022/11/06 09:47:52;;;;;;;12.63;11.33;;;8.60;99.90;;;;;;5081524;28;20280;-76
2022/11/06 09:50:24;;;;;;;13.20;11.53;;;8.30;99.90;;;;;;5088582;28;20196;-76
2022/11/06 09:52:55;;;;;;;11.63;10.43;;;8.10;99.90;;;;;;5080474;28;20215;-76
2022/11/06 09:55:27;;;;;;;14.00;11.90;;;8.10;99.90;;;;;;5082066;28;20196;-76
2022/11/06 09:57:57;;;;;;;13.30;11.63;;;7.90;99.90;;;;;;5089405;28;20196;-75
2022/11/06 10:00:24;;;;;;;14.53;12.67;;;8.00;99.90;;;;;;5076704;28;20230;-77
2022/11/06 10:02:53;;;;;;;14.63;12.47;;;7.80;99.90;;;;;;5086341;28;20246;-76
2022/11/06 10:05:25;;;;;;;14.73;12.97;;;7.60;99.90;;;;;;5077981;28;20217;-80
2022/11/06 10:07:56;;;;;;;15.57;12.90;;;7.50;99.90;;;;;;5089003;28;20720;-77
2022/11/06 10:10:29;;;;;;;15.43;12.80;;;7.20;99.90;;;;;;5076999;28;20256;-76
2022/11/06 10:13:12;;;;;;;17.87;14.30;;;7.30;99.90;;;;;;5085076;28;20217;-78
2022/11/06 10:15:46;;;;;;;16.73;14.47;;;7.30;99.90;;;;;;5087024;28;20245;-76
2022/11/06 10:18:20;;;;;;;17.57;14.63;;;7.30;99.90;;;;;;5076531;28;20196;-77
2022/11/06 10:20:52;;;;;;;15.57;13.47;;;7.50;99.90;;;;;;5087043;28;20189;-77
2022/11/06 10:23:27;;;;;;;16.70;14.13;;;7.00;99.90;;;;;;5084168;28;20271;-78
2022/11/06 10:26:04;;;;;;;15.90;13.23;;;7.10;99.90;;;;;;5077329;28;20258;-77
2022/11/06 10:29:10;;;;;;;18.23;14.63;;;7.00;99.90;;;;;;5077436;28;20649;-76
2022/11/06 10:31:43;;;;;;;20.13;15.87;;;7.10;99.90;;;;;;5030802;28;20194;-77
2022/11/06 10:34:15;;;;;;;18.37;14.30;;;7.20;99.90;;;;;;5014234;28;20742;-78
2022/11/06 10:36:47;;;;;;;20.50;15.67;;;7.00;99.90;;;;;;5052568;28;20729;-77
2022/11/06 10:39:19;;;;;;;19.93;15.57;;;7.00;99.90;;;;;;5073745;28;20201;-79
2022/11/06 10:41:50;;;;;;;18.93;15.13;;;7.20;99.90;;;;;;5076717;28;20189;-79
2022/11/06 10:44:21;;;;;;;17.83;14.10;;;7.20;99.90;;;;;;5079315;28;20189;-77
2022/11/06 10:46:52;;;;;;;16.83;13.13;;;7.30;99.90;;;;;;5079574;28;20189;-77
2022/11/06 10:49:30;;;;;;;16.40;12.93;;;7.30;99.90;;;;;;5074986;28;20239;-77
2022/11/06 10:52:12;;;;;;;16.07;12.73;;;7.20;99.90;;;;;;5084574;28;20198;-77
2022/11/06 10:54:56;;;;;;;17.07;13.43;;;7.40;99.90;;;;;;5076244;28;20571;-77
2022/11/06 10:57:32;;;;;;;17.23;13.47;;;7.60;99.90;;;;;;5084499;28;20190;-78
2022/11/06 10:59:59;;;;;;;16.23;12.60;;;7.70;99.90;;;;;;5080900;28;20189;-77
2022/11/06 11:02:29;;;;;;;17.77;13.30;;;7.60;99.90;;;;;;5080292;28;20222;-76
2022/11/06 11:04:56;;;;;;;14.63;12.53;;;7.50;99.90;;;;;;5075919;28;20278;-76
2022/11/06 11:07:23;;;;;;;17.13;12.60;;;7.30;99.90;;;;;;5084997;28;20200;-79
2022/11/06 11:09:51;;;;;;;17.50;13.27;;;7.20;99.90;;;;;;5077174;28;20242;-76
2022/11/06 11:12:25;;;;;;;17.67;13.40;;;7.30;99.90;;;;;;5089057;28;20259;-75
2022/11/06 11:15:14;;;;;;;17.93;14.00;;;7.00;99.90;;;;;;5077534;28;20206;-75
2022/11/06 11:17:42;;;;;;;16.23;13.63;;;7.10;99.90;;;;;;5090941;28;20204;-75
2022/11/06 11:20:28;;;;;;;16.33;13.07;;;6.90;99.90;;;;;;5081699;28;20201;-77
2022/11/06 11:23:05;;;;;;;16.43;12.80;;;7.00;99.90;;;;;;5069517;28;20251;-77
2022/11/06 11:25:33;;;;;;;17.43;14.03;;;7.10;99.90;;;;;;5074408;28;20198;-76
2022/11/06 11:28:01;;;;;;;16.67;13.20;;;7.00;99.90;;;;;;5074437;28;20293;-76
2022/11/06 11:30:28;;;;;;;16.37;13.33;;;7.20;99.90;;;;;;5086972;28;20226;-77
2022/11/06 11:32:55;;;;;;;18.13;14.73;;;7.30;99.90;;;;;;5094362;28;20220;-77
2022/11/06 11:35:27;;;;;;;15.70;13.67;;;7.40;99.90;;;;;;5094172;28;20196;-74
2022/11/06 11:38:09;;;;;;;18.00;13.50;;;7.50;99.90;;;;;;5094510;28;20643;-73
2022/11/06 11:40:39;;;;;;;16.67;13.43;;;7.50;99.90;;;;;;5094378;28;20196;-75
2022/11/06 11:43:22;;;;;;;17.80;13.77;;;7.40;99.90;;;;;;5093827;28;20249;-77
2022/11/06 11:46:12;;;;;;;17.57;14.20;;;7.40;99.90;;;;;;5086836;28;20655;-74
2022/11/06 11:48:43;;;;;;;16.00;13.00;;;7.60;99.90;;;;;;5094408;28;20196;-75
2022/11/06 11:51:39;;;;;;;15.87;12.87;;;7.70;99.90;;;;;;5094154;28;20203;-75
2022/11/06 11:54:18;;;;;;;16.80;13.60;;;7.90;99.90;;;;;;5077856;28;20227;-75
2022/11/06 11:56:50;;;;;;;16.50;12.67;;;8.00;99.90;;;;;;5094344;28;20200;-75
2022/11/06 11:59:20;;;;;;;16.33;13.40;;;7.90;99.90;;;;;;5094158;28;20287;-74
2022/11/06 12:01:48;;;;;;;17.50;14.30;;;7.90;99.90;;;;;;5094210;28;20200;-74
2022/11/06 12:04:21;;;;;;;16.87;13.70;;;8.00;99.90;;;;;;5088448;28;20236;-76
2022/11/06 12:06:57;;;;;;;15.40;13.73;;;8.20;99.90;;;;;;5072898;28;20212;-76
2022/11/06 12:09:26;;;;;;;16.13;14.10;;;8.30;99.90;;;;;;5073559;28;20660;-75
2022/11/06 12:11:56;;;;;;;15.67;13.80;;;8.30;99.90;;;;;;5075003;28;20209;-76
2022/11/06 12:14:28;;;;;;;16.97;14.23;;;8.40;99.90;;;;;;5080539;28;20232;-76
2022/11/06 12:16:58;;;;;;;16.33;14.53;;;8.40;99.90;;;;;;5073297;28;20201;-74
2022/11/06 12:19:30;;;;;;;15.53;13.93;;;8.40;99.90;;;;;;5072903;28;20662;-75
2022/11/06 12:22:01;;;;;;;17.07;14.83;;;8.50;99.90;;;;;;5073059;28;20560;-76
2022/11/06 12:24:35;;;;;;;14.83;13.10;;;8.90;99.90;;;;;;5073034;28;20267;-77
2022/11/06 12:27:06;;;;;;;15.10;13.50;;;9.50;99.90;;;;;;5073441;28;20201;-75
2022/11/06 12:29:36;;;;;;;14.70;13.13;;;9.80;99.90;;;;;;5073043;28;20197;-76
2022/11/06 12:32:08;;;;;;;13.97;12.37;;;10.60;99.90;;;;;;5072953;28;20254;-75
2022/11/06 12:34:42;;;;;;;15.23;12.93;;;11.10;99.90;;;;;;5072578;28;20695;-75
2022/11/06 12:37:18;;;;;;;13.70;12.20;;;10.80;99.90;;;;;;5072987;28;20201;-76
2022/11/06 12:39:53;;;;;;;13.53;11.93;;;11.50;99.90;;;;;;5075249;28;20246;-76
2022/11/06 12:42:25;;;;;;;11.70;10.60;;;11.00;99.90;;;;;;5075650;28;20223;-76
2022/11/06 12:44:52;;;;;;;12.63;11.33;;;10.90;99.90;;;;;;5075228;28;20287;-78
2022/11/06 12:47:32;;;;;;;12.70;10.33;;;12.50;99.90;;;;;;5075121;28;20197;-78
2022/11/06 12:50:18;;;;;;;10.43;9.40;;;13.90;99.90;;;;;;5075109;28;20196;-78
2022/11/06 12:53:04;;;;;;;10.90;9.80;;;13.40;99.90;;;;;;5075000;28;20224;-78
2022/11/06 12:55:34;;;;;;;10.80;9.80;;;12.70;99.90;;;;;;5075165;28;20239;-78
2022/11/06 12:58:16;;;;;;;10.50;9.50;;;13.30;99.90;;;;;;5074955;28;20197;-78
2022/11/06 13:00:57;;;;;;;11.23;10.03;;;12.20;99.90;;;;;;5074934;28;20234;-77